Time;durP1;ratioP1;P1;durP2;ratioP2;P2;SDS_P1;SDS_P2;PMS_P1;PMS_P2;Temp;Humidity;BMP_temperature;BMP_pressure;BME280_temperature;BME280_humidity;BME280_pressure;Samples;Min_cycle;Max_cycle;Signal;HPM_P1;HPM_P2
2022/10/01 00:02:03;;;;;;;;;;;;;;;22.40;48.48;101148.02;104560;1309;62146;-85
2022/10/01 00:04:28;;;;;;;;;;;;;;;22.40;48.38;101152.52;104529;1308;62182;-82
2022/10/01 00:06:54;;;;;;;;;;;;;;;22.40;48.43;101152.69;104549;1309;62178;-85
2022/10/01 00:09:19;;;;;;;;;;;;;;;22.40;48.49;101152.88;104500;1309;62207;-83
2022/10/01 00:11:45;;;;;;;;;;;;;;;22.39;48.45;101150.89;104476;1309;62094;-83
2022/10/01 00:14:10;;;;;;;;;;;;;;;22.40;48.60;101150.36;104435;1309;62201;-85
2022/10/01 00:16:36;;;;;;;;;;;;;;;22.39;48.43;101149.30;104512;1309;62126;-83
2022/10/01 00:19:02;;;;;;;;;;;;;;;22.39;48.42;101149.29;104561;1309;60277;-81
2022/10/01 00:21:28;;;;;;;;;;;;;;;22.39;48.64;101149.67;104603;1309;73704;-83
2022/10/01 00:23:59;;;;;;;;;;;;;;;22.39;48.53;101153.44;104522;1309;75664;-82
2022/10/01 00:26:26;;;;;;;;;;;;;;;22.40;48.55;101159.52;104622;1309;61928;-85
2022/10/01 00:28:52;;;;;;;;;;;;;;;22.39;48.50;101154.34;104501;1309;62124;-80
2022/10/01 00:31:18;;;;;;;;;;;;;;;22.39;48.50;101143.95;104482;1309;75035;-82
2022/10/01 00:33:43;;;;;;;;;;;;;;;22.39;48.52;101146.27;104523;1309;62146;-84
2022/10/01 00:36:09;;;;;;;;;;;;;;;22.39;48.48;101146.30;104571;1309;62137;-82
2022/10/01 00:38:36;;;;;;;;;;;;;;;22.39;48.51;101151.33;104673;1309;62120;-82
2022/10/01 00:41:02;;;;;;;;;;;;;;;22.39;48.50;101151.99;104498;1309;62178;-82
2022/10/01 00:43:30;;;;;;;;;;;;;;;22.39;48.60;101148.43;104539;1309;60795;-81
2022/10/01 00:45:57;;;;;;;;;;;;;;;22.40;48.56;101145.52;104647;1309;62071;-82
2022/10/01 00:48:23;;;;;;;;;;;;;;;22.39;48.61;101149.14;104621;1308;62058;-84
2022/10/01 00:50:48;;;;;;;;;;;;;;;22.39;48.59;101146.30;104525;1309;62074;-84
2022/10/01 00:53:14;;;;;;;;;;;;;;;22.39;48.55;101142.71;104484;1309;62088;-83
2022/10/01 00:55:40;;;;;;;;;;;;;;;22.39;48.55;101142.12;104523;1309;62224;-84
2022/10/01 00:58:06;;;;;;;;;;;;;;;22.39;48.64;101142.70;104450;1309;62069;-84
2022/10/01 01:00:32;;;;;;;;;;;;;;;22.39;48.60;101146.45;104658;1309;62181;-83
2022/10/01 01:02:57;;;;;;;;;;;;;;;22.39;48.60;101146.47;104526;1309;72737;-82
2022/10/01 01:05:23;;;;;;;;;;;;;;;22.39;48.58;101147.55;104618;1309;62108;-83
2022/10/01 01:07:51;;;;;;;;;;;;;;;22.39;48.54;101147.55;104541;1309;62095;-86
2022/10/01 01:10:29;;;;;;;;;;;;;;;22.39;48.52;101149.33;104629;1309;62075;-83
2022/10/01 01:13:13;;;;;;;;;;;;;;;22.39;48.56;101143.59;104618;1309;74505;-85
2022/10/01 01:15:40;;;;;;;;;;;;;;;22.39;48.51;101142.17;104592;1308;75650;-84
2022/10/01 01:18:10;;;;;;;;;;;;;;;22.39;48.63;101142.19;104637;1309;64001;-84
2022/10/01 01:20:37;;;;;;;;;;;;;;;22.39;48.57;101135.89;104571;1307;62088;-83
2022/10/01 01:23:09;;;;;;;;;;;;;;;22.38;48.54;101137.71;104526;1308;72745;-83
2022/10/01 01:25:38;;;;;;;;;;;;;;;22.38;48.58;101135.92;104654;1309;76658;-83
2022/10/01 01:28:18;;;;;;;;;;;;;;;22.39;48.59;101132.14;104530;1309;62189;-83
2022/10/01 01:30:43;;;;;;;;;;;;;;;22.39;48.53;101128.38;104657;1309;62194;-84
2022/10/01 01:33:14;;;;;;;;;;;;;;;22.38;48.58;101126.79;104511;1309;62098;-82
2022/10/01 01:35:50;;;;;;;;;;;;;;;22.39;48.46;101125.52;104526;1309;76733;-83
2022/10/01 01:38:20;;;;;;;;;;;;;;;22.38;48.51;101123.92;104654;1309;62039;-82
2022/10/01 01:40:49;;;;;;;;;;;;;;;22.38;48.58;101122.66;104511;1309;61949;-84
2022/10/01 01:43:19;;;;;;;;;;;;;;;22.38;48.58;101123.38;104441;1309;72820;-83
2022/10/01 01:45:44;;;;;;;;;;;;;;;22.38;48.52;101118.22;104627;1308;76622;-84
2022/10/01 01:48:12;;;;;;;;;;;;;;;22.38;48.58;101120.52;104651;1308;62211;-84
2022/10/01 01:50:40;;;;;;;;;;;;;;;22.38;48.49;101120.35;104506;1309;62076;-82
2022/10/01 01:53:06;;;;;;;;;;;;;;;22.38;48.57;101128.98;104510;1309;74004;-83
2022/10/01 01:55:32;;;;;;;;;;;;;;;22.38;48.57;101134.16;104502;1308;63244;-81
2022/10/01 01:57:57;;;;;;;;;;;;;;;22.38;48.58;101135.80;104534;1309;62168;-83
2022/10/01 02:00:23;;;;;;;;;;;;;;;22.38;48.61;101136.34;104645;1308;62105;-83
2022/10/01 02:02:49;;;;;;;;;;;;;;;22.38;48.55;101137.41;104572;1309;62187;-82
2022/10/01 02:05:16;;;;;;;;;;;;;;;22.37;48.70;101142.30;104469;1307;73355;-84
2022/10/01 02:07:51;;;;;;;;;;;;;;;22.38;48.59;101151.75;104511;1309;76516;-84
2022/10/01 02:10:35;;;;;;;;;;;;;;;22.37;48.57;101160.56;104558;1308;62790;-83
2022/10/01 02:13:06;;;;;;;;;;;;;;;22.38;48.60;101164.84;104612;1309;62128;-83
2022/10/01 02:15:51;;;;;;;;;;;;;;;22.38;48.62;101160.73;104528;1306;72895;-83
2022/10/01 02:18:28;;;;;;;;;;;;;;;22.37;48.65;101156.99;104640;1309;75704;-83
2022/10/01 02:20:57;;;;;;;;;;;;;;;22.37;48.58;101153.95;104557;1309;61961;-83
2022/10/01 02:23:28;;;;;;;;;;;;;;;22.37;48.58;101154.48;104612;1308;62057;-81
2022/10/01 02:25:58;;;;;;;;;;;;;;;22.37;48.71;101156.08;104608;1308;73227;-83
2022/10/01 02:28:24;;;;;;;;;;;;;;;22.37;48.62;101156.45;104510;1309;75509;-83
2022/10/01 02:30:50;;;;;;;;;;;;;;;22.37;48.58;101160.76;104536;1309;62164;-83
2022/10/01 02:33:17;;;;;;;;;;;;;;;22.37;48.61;101157.16;104473;1309;62316;-83
2022/10/01 02:35:43;;;;;;;;;;;;;;;22.37;48.51;101156.30;104499;1309;62247;-84
2022/10/01 02:38:08;;;;;;;;;;;;;;;22.37;48.71;101154.11;104593;1307;62111;-83
2022/10/01 02:40:35;;;;;;;;;;;;;;;22.37;48.59;101151.80;104476;1309;62440;-84
2022/10/01 02:43:10;;;;;;;;;;;;;;;22.37;48.69;101149.32;104562;1309;61987;-83
2022/10/01 02:45:36;;;;;;;;;;;;;;;22.37;48.57;101144.46;104509;1309;72999;-82
2022/10/01 02:48:07;;;;;;;;;;;;;;;22.37;48.60;101143.91;104487;1309;62072;-83
2022/10/01 02:50:42;;;;;;;;;;;;;;;22.37;48.68;101144.64;104612;1309;59974;-86
2022/10/01 02:53:09;;;;;;;;;;;;;;;22.37;48.71;101139.79;104592;1309;61992;-85
2022/10/01 02:55:35;;;;;;;;;;;;;;;22.37;48.77;101136.76;104532;1309;72792;-80
2022/10/01 02:58:01;;;;;;;;;;;;;;;22.37;48.56;101133.53;104482;1309;62460;-84
2022/10/01 03:00:27;;;;;;;;;;;;;;;22.37;48.59;101134.41;104521;1309;62110;-83
2022/10/01 03:02:53;;;;;;;;;;;;;;;22.37;48.65;101136.05;104506;1309;62399;-82
2022/10/01 03:05:19;;;;;;;;;;;;;;;22.37;48.67;101138.38;104651;1308;62098;-83
2022/10/01 03:07:45;;;;;;;;;;;;;;;22.37;48.63;101136.93;104604;1309;62044;-81
2022/10/01 03:10:10;;;;;;;;;;;;;;;22.37;48.73;101141.77;104553;1309;62094;-84
2022/10/01 03:12:36;;;;;;;;;;;;;;;22.37;48.73;101141.76;104531;1309;62543;-83
2022/10/01 03:15:03;;;;;;;;;;;;;;;22.37;48.71;101143.38;104627;1308;61984;-83
2022/10/01 03:17:29;;;;;;;;;;;;;;;22.37;48.63;101139.79;104523;1309;73115;-83
2022/10/01 03:19:54;;;;;;;;;;;;;;;22.37;48.69;101147.66;104491;1309;62209;-85
2022/10/01 03:22:23;;;;;;;;;;;;;;;22.37;48.70;101149.13;104515;1309;62400;-83
2022/10/01 03:24:50;;;;;;;;;;;;;;;22.37;48.68;101148.75;104626;1309;62054;-82
2022/10/01 03:27:16;;;;;;;;;;;;;;;22.37;48.76;101149.30;104497;1309;62586;-83
2022/10/01 03:29:42;;;;;;;;;;;;;;;22.37;48.60;101153.60;104536;1309;62053;-82
2022/10/01 03:32:07;;;;;;;;;;;;;;;22.37;48.68;101155.04;104523;1309;62150;-84
2022/10/01 03:34:33;;;;;;;;;;;;;;;22.37;48.78;101155.94;104498;1309;61962;-82
2022/10/01 03:36:58;;;;;;;;;;;;;;;22.36;48.73;101155.24;104542;1309;62104;-85
2022/10/01 03:39:24;;;;;;;;;;;;;;;22.37;48.67;101158.10;104518;1309;73251;-83
2022/10/01 03:41:49;;;;;;;;;;;;;;;22.36;48.67;101159.75;104590;1308;62539;-83
2022/10/01 03:44:15;;;;;;;;;;;;;;;22.36;48.66;101156.71;104507;1309;62068;-84
2022/10/01 03:46:40;;;;;;;;;;;;;;;22.36;48.60;101157.98;104637;1308;62226;-84
2022/10/01 03:49:06;;;;;;;;;;;;;;;22.36;48.67;101149.18;104555;1309;62174;-83
2022/10/01 03:51:32;;;;;;;;;;;;;;;22.36;48.70;101149.05;104505;1309;74462;-85
2022/10/01 03:53:58;;;;;;;;;;;;;;;22.36;48.68;101151.91;104601;1307;76511;-84
2022/10/01 03:56:24;;;;;;;;;;;;;;;22.35;48.71;101156.05;104619;1309;62108;-84
2022/10/01 03:58:49;;;;;;;;;;;;;;;22.36;48.66;101155.67;104534;1309;62236;-84
2022/10/01 04:01:15;;;;;;;;;;;;;;;22.36;48.70;101153.34;104518;1309;62093;-84
2022/10/01 04:03:42;;;;;;;;;;;;;;;22.35;48.70;101152.11;104490;1309;61982;-83
2022/10/01 04:06:07;;;;;;;;;;;;;;;22.36;48.74;101151.39;104483;1309;62130;-84
2022/10/01 04:08:33;;;;;;;;;;;;;;;22.35;48.74;101153.58;104539;1309;62068;-82
2022/10/01 04:10:59;;;;;;;;;;;;;;;22.35;48.76;101149.80;104429;1309;61987;-84
2022/10/01 04:13:26;;;;;;;;;;;;;;;22.35;48.69;101154.46;104629;1308;73122;-82
2022/10/01 04:15:51;;;;;;;;;;;;;;;22.35;48.70;101161.81;104520;1309;62246;-83
2022/10/01 04:18:20;;;;;;;;;;;;;;;22.35;48.64;101170.06;104502;1309;62073;-84
2022/10/01 04:20:46;;;;;;;;;;;;;;;22.35;48.79;101174.92;104529;1309;61977;-85
2022/10/01 04:23:12;;;;;;;;;;;;;;;22.35;48.70;101185.64;104440;1309;62127;-83
2022/10/01 04:25:37;;;;;;;;;;;;;;;22.35;48.75;101189.96;104510;1307;62107;-84
2022/10/01 04:28:07;;;;;;;;;;;;;;;22.35;48.76;101193.18;104489;1309;60375;-82
2022/10/01 04:30:33;;;;;;;;;;;;;;;22.35;48.69;101194.96;104448;1309;62085;-85
2022/10/01 04:32:59;;;;;;;;;;;;;;;22.36;48.80;101192.43;104469;1309;62080;-85
2022/10/01 04:35:29;;;;;;;;;;;;;;;22.35;48.74;101191.39;104520;1309;62105;-82
2022/10/01 04:38:02;;;;;;;;;;;;;;;22.36;48.78;101194.96;104521;1309;61956;-82
2022/10/01 04:40:33;;;;;;;;;;;;;;;22.36;48.76;101189.58;104528;1309;62073;-83
2022/10/01 04:42:59;;;;;;;;;;;;;;;22.35;48.77;101184.02;104642;1309;71929;-83
2022/10/01 04:45:24;;;;;;;;;;;;;;;22.36;48.77;101183.10;104534;1309;62131;-82
2022/10/01 04:47:50;;;;;;;;;;;;;;;22.36;48.80;101183.80;104503;1309;62162;-82
2022/10/01 04:50:17;;;;;;;;;;;;;;;22.36;48.78;101186.67;104486;1309;62160;-84
2022/10/01 04:52:42;;;;;;;;;;;;;;;22.36;48.76;101196.71;104518;1309;62643;-83
2022/10/01 04:55:10;;;;;;;;;;;;;;;22.36;48.76;101202.42;104497;1309;62124;-84
2022/10/01 04:57:35;;;;;;;;;;;;;;;22.36;48.73;101196.90;104539;1309;62225;-84
2022/10/01 05:00:03;;;;;;;;;;;;;;;22.36;48.78;101194.91;104514;1309;62211;-84
2022/10/01 05:02:28;;;;;;;;;;;;;;;22.36;48.74;101190.95;104637;1307;62135;-83
2022/10/01 05:04:54;;;;;;;;;;;;;;;22.36;48.83;101195.98;104530;1309;62423;-85
2022/10/01 05:07:21;;;;;;;;;;;;;;;22.36;48.73;101202.62;104527;1309;61975;-82
2022/10/01 05:09:47;;;;;;;;;;;;;;;22.37;48.77;101205.61;104538;1309;62228;-83
2022/10/01 05:12:13;;;;;;;;;;;;;;;22.37;48.78;101201.32;104541;1309;59805;-84
2022/10/01 05:14:40;;;;;;;;;;;;;;;22.37;48.72;101199.17;104492;1308;72674;-82
2022/10/01 05:17:06;;;;;;;;;;;;;;;22.37;48.75;101204.00;104606;1309;76431;-84
2022/10/01 05:19:34;;;;;;;;;;;;;;;22.37;48.74;101205.80;104551;1309;62100;-82
2022/10/01 05:21:59;;;;;;;;;;;;;;;22.37;48.77;101200.05;104458;1309;62201;-83
2022/10/01 05:24:25;;;;;;;;;;;;;;;22.37;48.77;101205.22;104624;1309;62096;-85
2022/10/01 05:26:52;;;;;;;;;;;;;;;22.37;48.81;101208.64;104536;1309;62071;-83
2022/10/01 05:29:19;;;;;;;;;;;;;;;22.37;48.67;101207.93;104625;1309;62067;-81
2022/10/01 05:31:45;;;;;;;;;;;;;;;22.37;48.81;101214.54;104536;1309;62074;-86
2022/10/01 05:34:11;;;;;;;;;;;;;;;22.37;48.76;101218.50;104456;1309;62085;-83
2022/10/01 05:36:37;;;;;;;;;;;;;;;22.37;48.71;101221.36;104576;1309;61989;-82
2022/10/01 05:39:02;;;;;;;;;;;;;;;22.38;48.74;101220.80;104540;1308;62203;-82
2022/10/01 05:41:28;;;;;;;;;;;;;;;22.38;48.82;101217.02;104662;1309;62093;-81
2022/10/01 05:43:53;;;;;;;;;;;;;;;22.38;48.77;101214.32;104541;1309;62109;-82
2022/10/01 05:46:19;;;;;;;;;;;;;;;22.38;48.80;101216.64;104542;1309;62078;-84
2022/10/01 05:48:44;;;;;;;;;;;;;;;22.38;48.72;101227.04;104526;1309;62143;-84
2022/10/01 05:51:12;;;;;;;;;;;;;;;22.38;48.82;101229.90;104526;1309;62138;-86
2022/10/01 05:53:38;;;;;;;;;;;;;;;22.39;48.80;101235.25;104516;1309;62080;-82
2022/10/01 05:56:06;;;;;;;;;;;;;;;22.39;48.76;101236.52;104619;1309;62179;-82
2022/10/01 05:58:32;;;;;;;;;;;;;;;22.39;48.84;101233.64;104619;1309;76693;-83
2022/10/01 06:00:57;;;;;;;;;;;;;;;22.39;48.80;101232.55;104419;1308;62170;-84
2022/10/01 06:03:23;;;;;;;;;;;;;;;22.39;48.77;101233.96;104514;1309;62104;-81
2022/10/01 06:05:48;;;;;;;;;;;;;;;22.39;48.82;101239.17;104440;1307;62210;-83
2022/10/01 06:08:14;;;;;;;;;;;;;;;22.39;48.74;101235.41;104568;1309;62098;-84
2022/10/01 06:10:40;;;;;;;;;;;;;;;22.39;48.80;101220.89;104461;1309;75584;-83
2022/10/01 06:13:05;;;;;;;;;;;;;;;22.39;48.79;101214.45;104487;1309;62120;-84
2022/10/01 06:15:33;;;;;;;;;;;;;;;22.39;48.77;101208.88;104559;1309;62123;-83
2022/10/01 06:18:02;;;;;;;;;;;;;;;22.39;48.80;101208.12;104304;1309;62110;-82
2022/10/01 06:20:28;;;;;;;;;;;;;;;22.40;48.74;101202.54;104354;1309;76436;-82
2022/10/01 06:22:54;;;;;;;;;;;;;;;22.40;48.86;101214.52;104413;1308;62274;-82
2022/10/01 06:25:19;;;;;;;;;;;;;;;22.40;48.81;101225.10;104329;1309;62876;-82
2022/10/01 06:27:50;;;;;;;;;;;;;;;22.40;48.81;101218.96;104417;1308;62097;-86
2022/10/01 06:30:16;;;;;;;;;;;;;;;22.41;48.80;101208.91;104537;1308;76572;-82
2022/10/01 06:32:42;;;;;;;;;;;;;;;22.41;48.84;101197.93;104519;1309;61997;-84
2022/10/01 06:35:07;;;;;;;;;;;;;;;22.42;48.79;101198.78;104446;1308;62106;-83
2022/10/01 06:37:35;;;;;;;;;;;;;;;22.42;48.88;101196.27;104434;1308;62194;-84
2022/10/01 06:40:01;;;;;;;;;;;;;;;22.42;48.84;101196.98;104441;1308;62244;-83
2022/10/01 06:42:26;;;;;;;;;;;;;;;22.42;48.79;101189.46;104538;1308;62085;-82
2022/10/01 06:44:52;;;;;;;;;;;;;;;22.42;48.83;101186.56;104475;1309;60051;-82
2022/10/01 06:47:18;;;;;;;;;;;;;;;22.42;48.78;101185.85;104432;1309;62078;-85
2022/10/01 06:49:43;;;;;;;;;;;;;;;22.42;48.75;101175.98;104528;1309;60915;-85
2022/10/01 06:54:54;;;;;;;;;;;;;;;22.42;48.78;101175.98;104472;1308;62104;-83
2022/10/01 06:57:20;;;;;;;;;;;;;;;22.43;48.69;101173.45;104539;1309;61996;-82
2022/10/01 06:59:45;;;;;;;;;;;;;;;22.43;48.77;101170.90;104433;1309;62578;-81
2022/10/01 07:02:20;;;;;;;;;;;;;;;22.43;48.75;101172.89;104509;1308;62140;-83
2022/10/01 07:04:46;;;;;;;;;;;;;;;22.43;48.78;101176.45;104399;1308;62079;-84
2022/10/01 07:07:12;;;;;;;;;;;;;;;22.44;48.81;101184.13;104549;1308;61997;-82
2022/10/01 07:09:40;;;;;;;;;;;;;;;22.44;48.84;101175.70;104514;1309;62247;-83
2022/10/01 07:12:06;;;;;;;;;;;;;;;22.45;48.91;101172.76;104439;1309;75415;-82
2022/10/01 07:14:33;;;;;;;;;;;;;;;22.46;48.93;101174.52;104510;1309;62127;-85
2022/10/01 07:16:59;;;;;;;;;;;;;;;22.46;48.89;101181.52;104523;1308;61974;-83
2022/10/01 07:19:24;;;;;;;;;;;;;;;22.47;48.96;101182.52;104530;1309;62220;-83
2022/10/01 07:21:50;;;;;;;;;;;;;;;22.47;48.96;101183.56;104449;1309;62718;-83
2022/10/01 07:24:16;;;;;;;;;;;;;;;22.48;48.97;101183.83;104518;1309;62099;-81
2022/10/01 07:26:42;;;;;;;;;;;;;;;22.49;48.97;101183.98;104465;1310;62201;-83
2022/10/01 07:29:09;;;;;;;;;;;;;;;22.49;48.96;101181.96;104463;1311;62085;-83
2022/10/01 07:31:35;;;;;;;;;;;;;;;22.49;48.99;101181.23;104447;1311;73004;-83
2022/10/01 07:34:00;;;;;;;;;;;;;;;22.50;49.00;101187.27;104380;1311;62210;-84
2022/10/01 07:36:26;;;;;;;;;;;;;;;22.51;49.03;101190.12;104454;1311;62209;-81
2022/10/01 07:38:52;;;;;;;;;;;;;;;22.51;49.10;101191.70;104453;1311;62102;-83
2022/10/01 07:41:18;;;;;;;;;;;;;;;22.52;49.10;101184.65;104376;1311;62242;-84
2022/10/01 07:43:45;;;;;;;;;;;;;;;22.52;48.98;101180.84;104480;1311;62232;-83
2022/10/01 07:46:11;;;;;;;;;;;;;;;22.53;49.11;101177.39;104436;1311;75663;-84
2022/10/01 07:48:37;;;;;;;;;;;;;;;22.53;49.10;101178.66;104401;1311;62076;-83
2022/10/01 07:51:03;;;;;;;;;;;;;;;22.53;49.03;101180.61;104445;1311;62093;-82
2022/10/01 07:53:29;;;;;;;;;;;;;;;22.53;49.08;101175.08;104445;1311;78584;-82
2022/10/01 07:55:54;;;;;;;;;;;;;;;22.53;49.03;101171.09;104429;1311;62208;-83
2022/10/01 07:58:22;;;;;;;;;;;;;;;22.53;49.03;101166.96;104446;1311;61976;-84
2022/10/01 08:00:48;;;;;;;;;;;;;;;22.53;49.02;101167.88;104441;1311;62134;-81
2022/10/01 08:03:14;;;;;;;;;;;;;;;22.54;49.02;101164.98;104409;1311;61958;-85
2022/10/01 08:05:41;;;;;;;;;;;;;;;22.53;49.10;101158.02;104431;1311;62107;-80
2022/10/01 08:08:07;;;;;;;;;;;;;;;22.53;49.03;101151.92;104554;1310;61931;-83
2022/10/01 08:10:42;;;;;;;;;;;;;;;22.53;49.07;101146.74;104575;1311;62238;-83
2022/10/01 08:13:13;;;;;;;;;;;;;;;22.53;49.10;101150.88;104471;1311;72769;-83
2022/10/01 08:15:38;;;;;;;;;;;;;;;22.53;49.10;101150.85;104461;1311;76650;-83
2022/10/01 08:18:04;;;;;;;;;;;;;;;22.53;49.21;101154.77;104440;1311;62261;-85
2022/10/01 08:20:30;;;;;;;;;;;;;;;22.53;49.14;101154.41;104420;1311;61974;-83
2022/10/01 08:23:02;;;;;;;;;;;;;;;22.54;49.09;101158.67;104439;1311;62080;-83
2022/10/01 08:25:28;;;;;;;;;;;;;;;22.54;49.09;101154.38;104469;1309;76676;-84
2022/10/01 08:27:53;;;;;;;;;;;;;;;22.54;49.12;101148.22;104448;1311;62198;-83
2022/10/01 08:30:19;;;;;;;;;;;;;;;22.54;49.03;101147.70;104429;1310;62095;-83
2022/10/01 08:32:44;;;;;;;;;;;;;;;22.55;49.04;101146.24;104499;1309;62199;-82
2022/10/01 08:35:10;;;;;;;;;;;;;;;22.55;49.00;101143.16;104479;1310;62079;-83
2022/10/01 08:37:36;;;;;;;;;;;;;;;22.55;49.11;101137.95;104455;1311;76639;-83
2022/10/01 08:40:01;;;;;;;;;;;;;;;22.55;49.02;101134.17;104443;1311;63308;-83
2022/10/01 08:42:33;;;;;;;;;;;;;;;22.56;49.06;101137.04;104462;1309;62095;-84
2022/10/01 08:45:01;;;;;;;;;;;;;;;22.55;49.12;101130.41;104446;1310;72849;-81
2022/10/01 08:47:29;;;;;;;;;;;;;;;22.55;49.03;101122.86;104444;1309;75834;-84
2022/10/01 08:49:58;;;;;;;;;;;;;;;22.56;49.05;101115.48;104477;1309;61882;-82
2022/10/01 08:52:32;;;;;;;;;;;;;;;22.56;49.03;101110.82;104477;1309;61974;-83
2022/10/01 08:55:03;;;;;;;;;;;;;;;22.56;49.04;101104.34;104514;1309;72634;-83
2022/10/01 08:57:30;;;;;;;;;;;;;;;22.57;49.05;101106.61;104404;1311;76552;-86
2022/10/01 08:59:57;;;;;;;;;;;;;;;22.57;48.99;101105.52;104442;1309;61956;-83
2022/10/01 09:02:26;;;;;;;;;;;;;;;22.57;48.99;101097.06;104427;1310;62736;-82
2022/10/01 09:04:53;;;;;;;;;;;;;;;22.58;49.02;101092.36;104471;1309;73803;-82
2022/10/01 09:07:38;;;;;;;;;;;;;;;22.58;49.03;101088.41;104428;1311;61951;-83
2022/10/01 09:10:30;;;;;;;;;;;;;;;22.58;49.03;101083.55;104455;1309;61882;-83
2022/10/01 09:13:16;;;;;;;;;;;;;;;22.59;49.08;101076.89;104299;1310;62022;-84
2022/10/01 09:15:45;;;;;;;;;;;;;;;22.59;48.97;101073.60;104479;1310;73640;-83
2022/10/01 09:18:20;;;;;;;;;;;;;;;22.60;48.89;101074.23;104488;1309;76454;-83
2022/10/01 09:20:51;;;;;;;;;;;;;;;22.61;48.92;101072.04;104445;1311;62124;-81
2022/10/01 09:23:19;;;;;;;;;;;;;;;22.61;48.91;101069.88;104506;1309;61973;-82
2022/10/01 09:25:49;;;;;;;;;;;;;;;22.62;48.79;101067.52;104480;1308;73619;-84
2022/10/01 09:28:20;;;;;;;;;;;;;;;22.62;48.87;101070.55;104487;1309;75901;-85
2022/10/01 09:30:55;;;;;;;;;;;;;;;22.63;48.78;101072.14;104526;1308;61931;-82
2022/10/01 09:33:23;;;;;;;;;;;;;;;22.63;48.83;101068.36;104527;1308;62003;-85
2022/10/01 09:35:55;;;;;;;;;;;;;;;22.63;48.71;101071.02;104579;1309;72783;-83
2022/10/01 09:38:21;;;;;;;;;;;;;;;22.63;48.68;101071.39;104454;1308;76592;-84
2022/10/01 09:40:53;;;;;;;;;;;;;;;22.63;48.71;101072.63;104437;1309;62102;-82
2022/10/01 09:43:22;;;;;;;;;;;;;;;22.63;48.67;101067.78;104524;1308;61990;-82
2022/10/01 09:45:49;;;;;;;;;;;;;;;22.64;48.73;101067.21;104442;1309;73792;-84
2022/10/01 09:48:17;;;;;;;;;;;;;;;22.64;48.74;101069.70;104524;1309;75688;-84
2022/10/01 09:50:47;;;;;;;;;;;;;;;22.64;48.64;101069.36;104432;1309;62014;-84
2022/10/01 09:53:15;;;;;;;;;;;;;;;22.64;48.70;101066.52;104455;1309;62162;-83
2022/10/01 09:55:43;;;;;;;;;;;;;;;22.63;48.65;101059.89;104506;1310;73848;-84
2022/10/01 09:58:19;;;;;;;;;;;;;;;22.63;48.52;101062.58;104626;1309;75763;-84
2022/10/01 10:00:47;;;;;;;;;;;;;;;22.64;48.57;101055.36;104630;1309;62054;-83
2022/10/01 10:03:24;;;;;;;;;;;;;;;22.63;48.49;101050.54;104270;1309;226879;-82
2022/10/01 10:05:49;;;;;;;;;;;;;;;22.63;48.60;101044.30;104613;1309;73952;-83
2022/10/01 10:08:20;;;;;;;;;;;;;;;22.64;48.49;101040.48;104515;1310;62192;-84
2022/10/01 10:10:50;;;;;;;;;;;;;;;22.63;48.54;101036.04;104413;1309;61072;-84
2022/10/01 10:13:37;;;;;;;;;;;;;;;22.64;48.50;101031.34;104446;1308;62589;-84
2022/10/01 10:16:24;;;;;;;;;;;;;;;22.63;48.50;101034.25;104527;1308;72888;-84
2022/10/01 10:18:51;;;;;;;;;;;;;;;22.64;48.49;101033.65;104449;1309;76523;-87
2022/10/01 10:21:20;;;;;;;;;;;;;;;22.64;48.46;101024.52;104612;1309;62101;-83
2022/10/01 10:23:47;;;;;;;;;;;;;;;22.63;48.47;101020.23;104606;1309;62005;-82
2022/10/01 10:26:34;;;;;;;;;;;;;;;22.64;48.47;101023.22;104266;1309;72190;-84
2022/10/01 10:29:03;;;;;;;;;;;;;;;22.64;48.47;101018.94;104327;1308;77070;-80
2022/10/01 10:31:34;;;;;;;;;;;;;;;22.64;48.32;101011.56;104286;1309;62021;-82
2022/10/01 10:33:59;;;;;;;;;;;;;;;22.64;48.42;101014.77;104503;1308;62078;-82
2022/10/01 10:36:29;;;;;;;;;;;;;;;22.65;48.44;101016.92;104519;1308;62084;-84
2022/10/01 10:38:55;;;;;;;;;;;;;;;22.65;48.36;101015.81;104512;1308;74717;-86
2022/10/01 10:41:25;;;;;;;;;;;;;;;22.65;48.34;101005.23;104532;1308;62114;-83
2022/10/01 10:43:59;;;;;;;;;;;;;;;22.65;48.41;101000.70;104653;1309;61403;-82
2022/10/01 10:46:30;;;;;;;;;;;;;;;22.66;48.32;101002.06;104308;1309;73828;-82
2022/10/01 10:49:19;;;;;;;;;;;;;;;22.66;48.36;101002.10;104323;1309;76981;-82
2022/10/01 10:51:48;;;;;;;;;;;;;;;22.66;48.41;101009.98;104597;1309;61979;-82
2022/10/01 10:54:17;;;;;;;;;;;;;;;22.67;48.45;100999.36;104478;1309;61963;-82
2022/10/01 10:56:56;;;;;;;;;;;;;;;22.67;48.32;100991.05;104438;1309;73846;-84
2022/10/01 10:59:22;;;;;;;;;;;;;;;22.67;48.31;100988.55;104403;1309;75473;-82
2022/10/01 11:01:48;;;;;;;;;;;;;;;22.67;48.29;100985.48;104432;1309;62210;-83
2022/10/01 11:04:32;;;;;;;;;;;;;;;22.67;48.36;100980.80;104641;1309;62004;-84
2022/10/01 11:06:59;;;;;;;;;;;;;;;22.67;48.30;100977.76;104454;1309;72844;-83
2022/10/01 11:09:26;;;;;;;;;;;;;;;22.68;48.30;100975.74;104436;1309;75686;-83
2022/10/01 11:11:59;;;;;;;;;;;;;;;22.67;48.23;100975.64;104523;1308;62091;-83
2022/10/01 11:14:38;;;;;;;;;;;;;;;22.67;48.22;100973.84;104408;1309;61822;-82
2022/10/01 11:17:08;;;;;;;;;;;;;;;22.67;48.18;100976.14;104536;1308;73661;-82
2022/10/01 11:19:39;;;;;;;;;;;;;;;22.67;48.17;100976.70;104514;1309;75414;-82
2022/10/01 11:22:17;;;;;;;;;;;;;;;22.67;48.13;100972.02;104524;1309;60842;-82
2022/10/01 11:24:46;;;;;;;;;;;;;;;22.67;48.08;100972.06;104443;1310;62100;-84
2022/10/01 11:27:37;;;;;;;;;;;;;;;22.67;48.20;100968.65;104449;1310;72618;-83
2022/10/01 11:30:03;;;;;;;;;;;;;;;22.68;48.09;100968.05;104291;1309;75916;-82
2022/10/01 11:32:47;;;;;;;;;;;;;;;22.67;48.11;100963.05;104409;1310;62112;-84
2022/10/01 11:35:41;;;;;;;;;;;;;;;22.68;48.13;100954.42;104425;1309;62117;-82
2022/10/01 11:38:22;;;;;;;;;;;;;;;22.68;48.06;100946.17;104006;1316;73867;-83
2022/10/01 11:40:49;;;;;;;;;;;;;;;22.68;47.89;100943.80;103580;1317;76680;-82
2022/10/01 11:43:18;;;;;;;;;;;;;;;22.68;47.92;100936.44;103655;1317;62071;-85
2022/10/01 11:45:50;;;;;;;;;;;;;;;22.68;48.06;100928.17;103870;1316;61984;-83
2022/10/01 11:48:17;;;;;;;;;;;;;;;22.69;48.00;100924.21;103872;1317;72004;-82
2022/10/01 11:50:43;;;;;;;;;;;;;;;22.68;48.07;100916.16;103878;1317;75534;-84
2022/10/01 11:53:12;;;;;;;;;;;;;;;22.69;47.99;100915.23;103849;1317;61990;-83
2022/10/01 11:58:50;;;;;;;;;;;;;;;22.68;48.03;100903.78;103344;1317;71639;-83
2022/10/01 12:01:34;;;;;;;;;;;;;;;22.68;47.96;100909.71;104083;1316;77328;-85
2022/10/01 12:04:03;;;;;;;;;;;;;;;22.69;47.96;100909.13;104071;1316;62084;-82
2022/10/01 12:06:36;;;;;;;;;;;;;;;22.68;47.90;100906.14;103874;1317;61982;-83
2022/10/01 12:09:05;;;;;;;;;;;;;;;22.68;48.03;100902.90;103870;1317;73233;-87
2022/10/01 12:11:41;;;;;;;;;;;;;;;22.68;47.86;100897.71;103861;1317;76875;-83
2022/10/01 12:14:11;;;;;;;;;;;;;;;22.68;47.95;100895.90;103820;1317;62811;-87
2022/10/01 12:16:44;;;;;;;;;;;;;;;22.68;47.80;100893.21;104425;1309;62128;-84
2022/10/01 12:19:25;;;;;;;;;;;;;;;22.68;47.94;100885.14;104502;1308;73691;-83
2022/10/01 12:22:10;;;;;;;;;;;;;;;22.68;47.96;100881.73;104502;1308;75485;-84
2022/10/01 12:24:43;;;;;;;;;;;;;;;22.69;47.91;100873.98;104536;1308;61963;-83
2022/10/01 12:27:28;;;;;;;;;;;;;;;22.68;47.95;100867.00;104445;1309;61972;-88
2022/10/01 12:30:14;;;;;;;;;;;;;;;22.69;47.91;100854.95;104534;1308;72672;-83
2022/10/01 12:32:46;;;;;;;;;;;;;;;22.69;47.93;100847.26;104525;1309;75596;-85
2022/10/01 12:35:26;;;;;;;;;;;;;;;22.68;47.86;100846.91;104456;1309;62020;-82
2022/10/01 12:38:05;;;;;;;;;;;;;;;22.68;47.81;100844.58;104502;1309;62085;-83
2022/10/01 12:40:39;;;;;;;;;;;;;;;22.69;47.88;100837.39;104652;1308;73128;-83